createdAt,value
2019-02-28T00:00:58.974Z,13.40
2019-02-28T00:06:22.593Z,13.43
2019-02-28T00:11:47.332Z,13.20
2019-02-28T00:17:10.857Z,14.03
2019-02-28T00:22:34.722Z,13.73
2019-02-28T00:27:59.106Z,14.13
2019-02-28T00:33:23.780Z,12.80
2019-02-28T00:38:47.392Z,14.20
2019-02-28T00:44:11.106Z,14.00
2019-02-28T00:49:35.780Z,13.83
2019-02-28T00:55:00.979Z,12.87
2019-02-28T01:00:25.457Z,13.40
2019-02-28T01:05:50.594Z,14.37
2019-02-28T01:11:14.294Z,13.57
2019-02-28T01:16:38.245Z,12.77
2019-02-28T01:22:02.124Z,12.93
2019-02-28T01:27:26.769Z,13.40
2019-02-28T01:32:51.173Z,13.13
2019-02-28T01:38:16.704Z,11.90
2019-02-28T01:43:40.706Z,12.33
2019-02-28T01:49:04.696Z,13.00
2019-02-28T01:54:29.692Z,12.43
2019-02-28T01:59:53.678Z,11.87
2019-02-28T02:05:18.477Z,12.20
2019-02-28T02:10:42.123Z,11.50
2019-02-28T02:16:06.597Z,11.67
2019-02-28T02:21:34.899Z,11.47
2019-02-28T02:26:56.960Z,10.83
2019-02-28T02:32:21.872Z,10.37
2019-02-28T02:37:46.594Z,10.30
2019-02-28T02:43:10.600Z,10.10
2019-02-28T02:48:34.213Z,10.80
2019-02-28T02:53:59.024Z,10.53
2019-02-28T02:59:23.771Z,10.33
2019-02-28T03:04:48.263Z,10.03
2019-02-28T03:10:17.523Z,10.37
2019-02-28T03:15:38.264Z,10.13
2019-02-28T03:21:02.065Z,9.33
2019-02-28T03:26:26.701Z,10.87
2019-02-28T03:31:56.440Z,10.47
2019-02-28T03:37:16.768Z,11.10
2019-02-28T03:42:40.748Z,10.27
2019-02-28T03:48:04.825Z,11.60
2019-02-28T03:53:28.474Z,10.37
2019-02-28T03:58:52.592Z,12.03
2019-02-28T04:04:17.370Z,12.33
2019-02-28T04:09:44.313Z,11.30
2019-02-28T04:15:10.221Z,12.80
2019-02-28T04:20:37.391Z,13.37
2019-02-28T04:25:59.283Z,13.93
2019-02-28T04:31:24.337Z,14.23
2019-02-28T04:36:47.861Z,13.80
2019-02-28T04:42:12.259Z,14.43
2019-02-28T04:47:37.310Z,15.47
2019-02-28T04:53:02.151Z,14.80
2019-02-28T04:58:26.537Z,16.30
2019-02-28T05:03:52.684Z,18.30
2019-02-28T05:09:16.773Z,19.73
2019-02-28T05:14:41.502Z,18.73
2019-02-28T05:20:07.326Z,19.83
2019-02-28T05:25:31.282Z,19.83
2019-02-28T05:30:55.068Z,19.13
2019-02-28T05:36:19.786Z,20.47
2019-02-28T05:41:49.116Z,20.63
2019-02-28T05:47:11.698Z,22.80
2019-02-28T05:52:35.296Z,22.80
2019-02-28T05:57:59.724Z,21.60
2019-02-28T06:03:24.825Z,22.43
2019-02-28T06:08:49.633Z,22.20
2019-02-28T06:14:14.245Z,22.83
2019-02-28T06:19:40.181Z,24.63
2019-02-28T06:25:03.823Z,23.57
2019-02-28T06:30:27.963Z,25.47
2019-02-28T06:35:54.454Z,24.10
2019-02-28T06:41:19.543Z,26.43
2019-02-28T06:46:43.991Z,26.60
2019-02-28T06:52:08.631Z,24.57
2019-02-28T06:57:33.253Z,27.33
2019-02-28T07:02:57.879Z,27.90
2019-02-28T07:08:24.937Z,28.93
2019-02-28T07:13:49.133Z,30.00
2019-02-28T07:19:13.379Z,29.53
2019-02-28T07:24:38.264Z,29.47
2019-02-28T07:30:01.973Z,30.67
2019-02-28T07:35:26.411Z,30.87
2019-02-28T07:40:51.291Z,30.20
2019-02-28T07:46:15.588Z,33.20
2019-02-28T07:51:40.814Z,32.47
2019-02-28T07:57:07.832Z,34.33
2019-02-28T08:02:32.387Z,35.17
2019-02-28T08:07:58.379Z,33.27
2019-02-28T08:13:22.052Z,34.83
2019-02-28T08:18:46.821Z,36.60
2019-02-28T08:24:11.833Z,35.53
2019-02-28T08:29:35.698Z,36.27
2019-02-28T08:34:59.667Z,36.97
2019-02-28T08:40:26.651Z,40.27
2019-02-28T08:45:51.894Z,41.30
2019-02-28T08:51:16.048Z,41.27
2019-02-28T08:56:39.719Z,38.83
2019-02-28T09:02:04.544Z,40.50
2019-02-28T09:07:29.303Z,39.77
2019-02-28T09:12:53.352Z,42.20
2019-02-28T09:18:17.793Z,41.07
2019-02-28T09:23:42.448Z,44.43
2019-02-28T09:29:06.303Z,40.67
2019-02-28T09:34:31.614Z,41.47
2019-02-28T09:39:56.460Z,41.10
2019-02-28T09:45:20.693Z,42.50
2019-02-28T09:50:44.525Z,41.67
2019-02-28T09:56:10.247Z,43.20
2019-02-28T10:01:35.139Z,42.60
2019-02-28T10:06:58.796Z,41.40
2019-02-28T10:12:23.349Z,39.47
2019-02-28T10:17:48.076Z,40.40
2019-02-28T10:23:13.342Z,40.33
2019-02-28T10:28:38.132Z,38.25
2019-02-28T10:34:02.683Z,37.53
2019-02-28T10:39:26.582Z,39.42
2019-02-28T10:44:51.017Z,38.08
2019-02-28T10:50:17.485Z,36.95
2019-02-28T10:55:41.350Z,36.90
2019-02-28T11:01:08.977Z,37.05
2019-02-28T11:06:38.791Z,39.60
2019-02-28T11:12:02.760Z,38.02
2019-02-28T11:17:27.124Z,35.60
2019-02-28T11:22:51.557Z,37.05
2019-02-28T11:28:16.349Z,37.93
2019-02-28T11:33:41.628Z,38.58
2019-02-28T11:39:07.056Z,38.58
2019-02-28T11:44:32.025Z,36.80
2019-02-28T11:49:56.762Z,35.88
2019-02-28T11:55:21.435Z,36.45
2019-02-28T12:00:46.188Z,38.55
2019-02-28T12:06:11.127Z,35.33
2019-02-28T12:11:36.528Z,36.95
2019-02-28T12:17:00.366Z,33.95
2019-02-28T12:22:25.143Z,35.13
2019-02-28T12:27:48.977Z,33.78
2019-02-28T12:33:15.371Z,34.10
2019-02-28T12:38:39.346Z,35.05
2019-02-28T12:44:03.224Z,35.58
2019-02-28T12:49:27.703Z,36.70
2019-02-28T12:54:51.846Z,34.10
2019-02-28T13:00:19.817Z,34.20
2019-02-28T13:05:43.141Z,34.73
2019-02-28T13:11:08.281Z,34.20
2019-02-28T13:16:33.080Z,32.40
2019-02-28T13:21:57.220Z,33.53
2019-02-28T13:27:21.767Z,32.10
2019-02-28T13:32:46.587Z,33.73
2019-02-28T13:38:17.684Z,33.48
2019-02-28T13:43:37.404Z,33.53
2019-02-28T13:49:01.832Z,33.97
2019-02-28T13:54:26.947Z,34.17
2019-02-28T13:59:52.772Z,36.83
2019-02-28T14:05:17.670Z,36.40
2019-02-28T14:10:41.976Z,37.40
2019-02-28T14:16:05.975Z,37.00
2019-02-28T14:21:29.923Z,35.87
2019-02-28T14:26:54.623Z,36.90
2019-02-28T14:32:19.536Z,38.80
2019-02-28T14:37:44.265Z,38.97
2019-02-28T14:43:08.945Z,38.63
2019-02-28T14:48:36.673Z,39.47
2019-02-28T14:53:59.983Z,39.43
2019-02-28T14:59:24.351Z,39.93
2019-02-28T15:04:48.785Z,37.20
2019-02-28T15:10:15.107Z,35.83
2019-02-28T15:15:39.129Z,37.57
2019-02-28T15:21:04.442Z,34.57
2019-02-28T15:26:32.161Z,34.83
2019-02-28T15:31:56.819Z,38.53
2019-02-28T15:37:20.908Z,41.00
2019-02-28T15:42:44.812Z,35.60
2019-02-28T15:48:09.245Z,36.57
2019-02-28T15:53:33.425Z,39.73
2019-02-28T15:58:57.955Z,38.97
2019-02-28T16:04:23.549Z,36.77
2019-02-28T16:09:48.053Z,37.27
2019-02-28T16:15:13.310Z,39.63
2019-02-28T16:20:38.383Z,39.70
2019-02-28T16:26:01.988Z,40.00
2019-02-28T16:31:26.229Z,41.53
2019-02-28T16:36:50.987Z,45.53
2019-02-28T16:42:17.461Z,44.03
2019-02-28T16:47:42.313Z,44.90
2019-02-28T16:53:07.667Z,46.70
2019-02-28T16:58:58.112Z,47.07
2019-02-28T17:04:31.499Z,52.27
2019-02-28T17:16:42.154Z,48.67
2019-02-28T17:22:06.463Z,47.47
2019-02-28T17:27:38.697Z,53.67
2019-02-28T17:33:01.197Z,54.00
2019-02-28T17:38:26.519Z,58.10
2019-02-28T17:44:11.561Z,56.50
2019-02-28T17:50:32.061Z,59.50
2019-02-28T17:56:40.825Z,56.27
2019-02-28T18:02:29.183Z,54.47
2019-02-28T18:08:07.156Z,55.03
2019-02-28T18:13:42.192Z,54.20
2019-02-28T18:19:33.726Z,51.10
2019-02-28T18:25:32.533Z,54.20
2019-02-28T18:31:14.283Z,50.63
2019-02-28T18:36:40.248Z,50.20
2019-02-28T18:42:04.388Z,52.23
2019-02-28T18:47:28.283Z,54.43
2019-02-28T18:52:52.124Z,53.23
2019-02-28T18:58:17.025Z,49.60
2019-02-28T19:03:41.451Z,65.70
2019-02-28T19:09:19.803Z,55.67
2019-02-28T19:14:44.025Z,53.73
2019-02-28T19:20:15.905Z,53.93
2019-02-28T19:25:39.502Z,53.47
2019-02-28T19:31:04.461Z,55.83
2019-02-28T19:36:28.744Z,57.53
2019-02-28T19:41:52.444Z,53.17
2019-02-28T19:47:17.250Z,56.67
2019-02-28T19:52:41.961Z,53.27
2019-02-28T19:58:06.398Z,57.47
2019-02-28T20:03:31.105Z,54.77
2019-02-28T20:08:55.299Z,56.30
2019-02-28T20:14:19.288Z,53.03
2019-02-28T20:19:44.067Z,54.70
2019-02-28T20:25:10.260Z,54.87
2019-02-28T20:30:36.331Z,51.33
2019-02-28T20:36:00.067Z,50.17
2019-02-28T20:41:25.080Z,52.43
2019-02-28T20:46:49.216Z,55.23
2019-02-28T20:52:13.655Z,56.37
2019-02-28T20:57:37.416Z,54.00
2019-02-28T21:03:01.990Z,52.47
2019-02-28T21:08:26.214Z,52.33
2019-02-28T21:13:50.117Z,52.67
2019-02-28T21:19:14.816Z,51.80
2019-02-28T21:24:39.406Z,50.17
2019-02-28T21:30:04.803Z,50.17
2019-02-28T21:35:30.609Z,50.07
2019-02-28T21:40:54.683Z,47.13
2019-02-28T21:46:19.514Z,46.60
2019-02-28T21:51:43.810Z,52.50
2019-02-28T21:57:07.388Z,47.53
2019-02-28T22:02:32.107Z,46.23
2019-02-28T22:07:56.474Z,46.27
2019-02-28T22:13:21.054Z,46.47
2019-02-28T22:18:45.966Z,44.33
2019-02-28T22:24:10.672Z,47.43
2019-02-28T22:29:35.411Z,45.47
2019-02-28T22:35:11.904Z,43.97
2019-02-28T22:40:36.632Z,42.03
2019-02-28T22:46:01.075Z,40.23
2019-02-28T22:51:24.850Z,40.60
2019-02-28T22:56:49.250Z,39.47
2019-02-28T23:02:13.200Z,39.90
2019-02-28T23:07:37.064Z,38.17
2019-02-28T23:13:00.844Z,41.83
2019-02-28T23:18:24.856Z,37.03
2019-02-28T23:23:49.378Z,36.30
2019-02-28T23:29:17.731Z,35.50
2019-02-28T23:34:47.874Z,36.90
2019-02-28T23:40:11.622Z,37.80
2019-02-28T23:45:36.076Z,35.63
2019-02-28T23:51:00.045Z,35.17
2019-02-28T23:56:24.672Z,36.30
